sensor_id;sensor_type;location;lat;lon;timestamp;P1;durP1;ratioP1;P2;durP2;ratioP2
77726;SDS011;68312;53.502;10.030;2023-08-20T00:01:21;15.98;;;4.97;;
77726;SDS011;68312;53.502;10.030;2023-08-20T00:03:50;14.68;;;5.00;;
77726;SDS011;68312;53.502;10.030;2023-08-20T00:06:18;13.13;;;5.20;;
77726;SDS011;68312;53.502;10.030;2023-08-20T00:08:45;9.02;;;5.18;;
77726;SDS011;68312;53.502;10.030;2023-08-20T00:11:11;20.75;;;5.47;;
77726;SDS011;68312;53.502;10.030;2023-08-20T00:13:38;9.85;;;4.40;;
77726;SDS011;68312;53.502;10.030;2023-08-20T00:16:04;18.38;;;5.00;;
77726;SDS011;68312;53.502;10.030;2023-08-20T00:18:31;14.05;;;5.80;;
77726;SDS011;68312;53.502;10.030;2023-08-20T00:20:57;19.85;;;6.22;;
77726;SDS011;68312;53.502;10.030;2023-08-20T00:23:23;18.27;;;6.07;;
77726;SDS011;68312;53.502;10.030;2023-08-20T00:25:49;13.13;;;4.93;;
77726;SDS011;68312;53.502;10.030;2023-08-20T00:28:15;13.75;;;5.03;;
77726;SDS011;68312;53.502;10.030;2023-08-20T00:30:40;13.98;;;5.40;;
77726;SDS011;68312;53.502;10.030;2023-08-20T00:33:06;12.00;;;4.82;;
77726;SDS011;68312;53.502;10.030;2023-08-20T00:35:31;12.77;;;5.53;;
77726;SDS011;68312;53.502;10.030;2023-08-20T00:37:57;12.70;;;4.82;;
77726;SDS011;68312;53.502;10.030;2023-08-20T00:40:22;9.88;;;4.72;;
77726;SDS011;68312;53.502;10.030;2023-08-20T00:42:48;16.30;;;5.45;;
77726;SDS011;68312;53.502;10.030;2023-08-20T00:45:14;13.05;;;6.00;;
77726;SDS011;68312;53.502;10.030;2023-08-20T00:47:41;14.70;;;5.72;;
77726;SDS011;68312;53.502;10.030;2023-08-20T00:50:07;17.20;;;5.35;;
77726;SDS011;68312;53.502;10.030;2023-08-20T00:52:33;12.40;;;4.82;;
77726;SDS011;68312;53.502;10.030;2023-08-20T00:55:00;17.23;;;6.57;;
77726;SDS011;68312;53.502;10.030;2023-08-20T00:57:33;11.90;;;5.55;;
77726;SDS011;68312;53.502;10.030;2023-08-20T01:00:00;12.48;;;5.05;;
77726;SDS011;68312;53.502;10.030;2023-08-20T01:02:26;13.18;;;5.20;;
77726;SDS011;68312;53.502;10.030;2023-08-20T01:04:51;11.98;;;5.22;;
77726;SDS011;68312;53.502;10.030;2023-08-20T01:12:19;10.38;;;5.35;;
77726;SDS011;68312;53.502;10.030;2023-08-20T01:14:45;8.40;;;4.40;;
77726;SDS011;68312;53.502;10.030;2023-08-20T01:17:10;7.53;;;4.18;;
77726;SDS011;68312;53.502;10.030;2023-08-20T01:19:35;12.30;;;4.38;;
77726;SDS011;68312;53.502;10.030;2023-08-20T01:30:27;12.30;;;4.43;;
77726;SDS011;68312;53.502;10.030;2023-08-20T01:32:53;10.77;;;4.93;;
77726;SDS011;68312;53.502;10.030;2023-08-20T01:35:19;11.68;;;5.68;;
77726;SDS011;68312;53.502;10.030;2023-08-20T01:37:44;11.93;;;5.22;;
77726;SDS011;68312;53.502;10.030;2023-08-20T01:40:10;11.43;;;5.47;;
77726;SDS011;68312;53.502;10.030;2023-08-20T01:42:37;8.90;;;5.28;;
77726;SDS011;68312;53.502;10.030;2023-08-20T01:45:04;10.30;;;4.75;;
77726;SDS011;68312;53.502;10.030;2023-08-20T01:47:30;13.10;;;5.68;;
77726;SDS011;68312;53.502;10.030;2023-08-20T01:49:58;12.05;;;5.45;;
77726;SDS011;68312;53.502;10.030;2023-08-20T01:52:24;14.93;;;6.03;;
77726;SDS011;68312;53.502;10.030;2023-08-20T01:54:50;13.73;;;6.20;;
77726;SDS011;68312;53.502;10.030;2023-08-20T01:57:16;11.57;;;5.03;;
77726;SDS011;68312;53.502;10.030;2023-08-20T01:59:42;11.65;;;5.85;;
77726;SDS011;68312;53.502;10.030;2023-08-20T02:02:08;11.32;;;5.00;;
77726;SDS011;68312;53.502;10.030;2023-08-20T02:04:34;9.90;;;5.10;;
77726;SDS011;68312;53.502;10.030;2023-08-20T02:06:59;9.88;;;5.13;;
77726;SDS011;68312;53.502;10.030;2023-08-20T02:09:25;11.98;;;5.03;;
77726;SDS011;68312;53.502;10.030;2023-08-20T02:11:51;9.57;;;4.75;;
77726;SDS011;68312;53.502;10.030;2023-08-20T02:14:17;8.20;;;4.22;;
77726;SDS011;68312;53.502;10.030;2023-08-20T02:16:43;7.82;;;3.97;;
77726;SDS011;68312;53.502;10.030;2023-08-20T02:19:10;8.13;;;4.47;;
77726;SDS011;68312;53.502;10.030;2023-08-20T02:21:36;8.93;;;4.80;;
77726;SDS011;68312;53.502;10.030;2023-08-20T02:24:02;11.57;;;4.93;;
77726;SDS011;68312;53.502;10.030;2023-08-20T02:26:27;9.27;;;4.35;;
77726;SDS011;68312;53.502;10.030;2023-08-20T02:28:53;11.23;;;5.10;;
77726;SDS011;68312;53.502;10.030;2023-08-20T02:31:18;8.15;;;4.68;;
77726;SDS011;68312;53.502;10.030;2023-08-20T02:33:43;14.15;;;5.38;;
77726;SDS011;68312;53.502;10.030;2023-08-20T02:36:09;8.63;;;4.53;;
77726;SDS011;68312;53.502;10.030;2023-08-20T02:38:34;14.43;;;5.20;;
77726;SDS011;68312;53.502;10.030;2023-08-20T02:41:00;11.98;;;5.07;;
77726;SDS011;68312;53.502;10.030;2023-08-20T02:43:32;12.60;;;5.13;;
77726;SDS011;68312;53.502;10.030;2023-08-20T02:45:57;18.48;;;5.15;;
77726;SDS011;68312;53.502;10.030;2023-08-20T02:48:23;12.20;;;5.53;;
77726;SDS011;68312;53.502;10.030;2023-08-20T02:50:52;9.35;;;4.90;;
77726;SDS011;68312;53.502;10.030;2023-08-20T02:53:21;8.20;;;3.85;;
77726;SDS011;68312;53.502;10.030;2023-08-20T02:55:47;8.13;;;3.85;;
77726;SDS011;68312;53.502;10.030;2023-08-20T02:58:13;9.95;;;3.63;;
77726;SDS011;68312;53.502;10.030;2023-08-20T03:00:38;14.98;;;5.03;;
77726;SDS011;68312;53.502;10.030;2023-08-20T03:03:04;12.40;;;4.50;;
77726;SDS011;68312;53.502;10.030;2023-08-20T03:05:31;12.93;;;5.30;;
77726;SDS011;68312;53.502;10.030;2023-08-20T03:07:57;9.25;;;4.78;;
77726;SDS011;68312;53.502;10.030;2023-08-20T03:10:23;12.90;;;5.10;;
77726;SDS011;68312;53.502;10.030;2023-08-20T03:12:48;7.20;;;4.30;;
77726;SDS011;68312;53.502;10.030;2023-08-20T03:15:14;8.52;;;3.63;;
77726;SDS011;68312;53.502;10.030;2023-08-20T03:17:39;10.05;;;4.85;;
77726;SDS011;68312;53.502;10.030;2023-08-20T03:20:05;8.93;;;4.45;;
77726;SDS011;68312;53.502;10.030;2023-08-20T03:22:32;7.28;;;4.20;;
77726;SDS011;68312;53.502;10.030;2023-08-20T03:24:58;10.38;;;3.67;;
77726;SDS011;68312;53.502;10.030;2023-08-20T03:27:26;8.82;;;4.03;;
77726;SDS011;68312;53.502;10.030;2023-08-20T03:29:51;7.07;;;3.90;;
77726;SDS011;68312;53.502;10.030;2023-08-20T03:32:17;7.00;;;3.53;;
77726;SDS011;68312;53.502;10.030;2023-08-20T03:34:43;7.82;;;4.05;;
77726;SDS011;68312;53.502;10.030;2023-08-20T03:37:08;6.93;;;3.65;;
77726;SDS011;68312;53.502;10.030;2023-08-20T03:39:33;9.65;;;3.78;;
77726;SDS011;68312;53.502;10.030;2023-08-20T03:41:59;7.25;;;3.97;;
77726;SDS011;68312;53.502;10.030;2023-08-20T03:44:24;7.00;;;3.65;;
77726;SDS011;68312;53.502;10.030;2023-08-20T03:46:50;8.10;;;3.90;;
77726;SDS011;68312;53.502;10.030;2023-08-20T03:49:16;7.47;;;3.33;;
77726;SDS011;68312;53.502;10.030;2023-08-20T03:51:41;7.53;;;4.63;;
77726;SDS011;68312;53.502;10.030;2023-08-20T03:54:07;7.90;;;3.53;;
77726;SDS011;68312;53.502;10.030;2023-08-20T03:56:34;7.50;;;3.63;;
77726;SDS011;68312;53.502;10.030;2023-08-20T03:58:59;7.75;;;3.78;;
77726;SDS011;68312;53.502;10.030;2023-08-20T04:01:26;6.50;;;3.58;;
77726;SDS011;68312;53.502;10.030;2023-08-20T04:03:51;6.22;;;3.10;;
77726;SDS011;68312;53.502;10.030;2023-08-20T04:06:16;6.47;;;4.00;;
77726;SDS011;68312;53.502;10.030;2023-08-20T04:08:42;10.65;;;4.57;;
77726;SDS011;68312;53.502;10.030;2023-08-20T04:11:07;10.57;;;4.03;;
77726;SDS011;68312;53.502;10.030;2023-08-20T04:13:33;7.30;;;4.07;;
77726;SDS011;68312;53.502;10.030;2023-08-20T04:15:58;7.13;;;3.97;;
77726;SDS011;68312;53.502;10.030;2023-08-20T04:18:24;9.45;;;4.47;;
77726;SDS011;68312;53.502;10.030;2023-08-20T04:20:50;7.30;;;4.32;;
77726;SDS011;68312;53.502;10.030;2023-08-20T04:23:19;10.30;;;4.60;;
77726;SDS011;68312;53.502;10.030;2023-08-20T04:25:45;10.52;;;4.45;;
77726;SDS011;68312;53.502;10.030;2023-08-20T04:28:14;8.48;;;4.32;;
77726;SDS011;68312;53.502;10.030;2023-08-20T04:30:39;8.40;;;4.82;;
77726;SDS011;68312;53.502;10.030;2023-08-20T04:33:04;8.35;;;3.92;;
77726;SDS011;68312;53.502;10.030;2023-08-20T04:35:30;9.57;;;3.50;;
77726;SDS011;68312;53.502;10.030;2023-08-20T04:37:56;9.75;;;4.05;;
77726;SDS011;68312;53.502;10.030;2023-08-20T04:40:21;8.57;;;4.25;;
77726;SDS011;68312;53.502;10.030;2023-08-20T04:42:48;12.30;;;4.32;;
77726;SDS011;68312;53.502;10.030;2023-08-20T04:45:14;8.27;;;4.07;;
77726;SDS011;68312;53.502;10.030;2023-08-20T04:47:41;6.10;;;3.45;;
77726;SDS011;68312;53.502;10.030;2023-08-20T04:50:07;9.10;;;3.80;;
77726;SDS011;68312;53.502;10.030;2023-08-20T04:52:33;7.15;;;3.00;;
77726;SDS011;68312;53.502;10.030;2023-08-20T04:55:00;7.80;;;2.90;;
77726;SDS011;68312;53.502;10.030;2023-08-20T04:57:27;11.90;;;3.65;;
77726;SDS011;68312;53.502;10.030;2023-08-20T04:59:52;15.05;;;4.03;;
77726;SDS011;68312;53.502;10.030;2023-08-20T05:02:18;8.60;;;3.90;;
77726;SDS011;68312;53.502;10.030;2023-08-20T05:04:43;7.03;;;3.20;;
77726;SDS011;68312;53.502;10.030;2023-08-20T05:07:10;13.00;;;3.85;;
77726;SDS011;68312;53.502;10.030;2023-08-20T05:09:35;7.63;;;3.92;;
77726;SDS011;68312;53.502;10.030;2023-08-20T05:12:01;13.20;;;3.70;;
77726;SDS011;68312;53.502;10.030;2023-08-20T05:14:27;13.13;;;3.65;;
77726;SDS011;68312;53.502;10.030;2023-08-20T05:16:53;11.45;;;4.72;;
77726;SDS011;68312;53.502;10.030;2023-08-20T05:19:19;12.93;;;4.50;;
77726;SDS011;68312;53.502;10.030;2023-08-20T05:21:44;9.15;;;4.47;;
77726;SDS011;68312;53.502;10.030;2023-08-20T05:24:09;5.90;;;3.60;;
77726;SDS011;68312;53.502;10.030;2023-08-20T05:26:35;12.13;;;3.97;;
77726;SDS011;68312;53.502;10.030;2023-08-20T05:29:00;6.30;;;4.20;;
77726;SDS011;68312;53.502;10.030;2023-08-20T05:31:26;13.23;;;4.22;;
77726;SDS011;68312;53.502;10.030;2023-08-20T05:33:51;6.97;;;3.50;;
77726;SDS011;68312;53.502;10.030;2023-08-20T05:36:16;9.73;;;3.65;;
77726;SDS011;68312;53.502;10.030;2023-08-20T05:38:42;9.88;;;4.00;;
77726;SDS011;68312;53.502;10.030;2023-08-20T05:41:08;7.25;;;3.92;;
77726;SDS011;68312;53.502;10.030;2023-08-20T05:43:33;7.53;;;5.03;;
77726;SDS011;68312;53.502;10.030;2023-08-20T05:46:01;15.15;;;5.15;;
77726;SDS011;68312;53.502;10.030;2023-08-20T05:48:29;11.93;;;4.50;;
77726;SDS011;68312;53.502;10.030;2023-08-20T05:50:55;13.98;;;4.68;;
77726;SDS011;68312;53.502;10.030;2023-08-20T05:53:21;24.83;;;4.30;;
77726;SDS011;68312;53.502;10.030;2023-08-20T05:55:47;10.52;;;4.07;;
77726;SDS011;68312;53.502;10.030;2023-08-20T05:58:13;5.57;;;3.63;;
77726;SDS011;68312;53.502;10.030;2023-08-20T06:00:38;11.50;;;4.50;;
77726;SDS011;68312;53.502;10.030;2023-08-20T06:03:04;18.35;;;4.43;;
77726;SDS011;68312;53.502;10.030;2023-08-20T06:05:29;41.25;;;5.90;;
77726;SDS011;68312;53.502;10.030;2023-08-20T06:07:55;19.02;;;4.68;;
77726;SDS011;68312;53.502;10.030;2023-08-20T06:10:20;30.90;;;5.78;;
77726;SDS011;68312;53.502;10.030;2023-08-20T06:12:46;11.90;;;4.43;;
77726;SDS011;68312;53.502;10.030;2023-08-20T06:15:11;12.30;;;4.68;;
77726;SDS011;68312;53.502;10.030;2023-08-20T06:17:37;23.52;;;5.43;;
77726;SDS011;68312;53.502;10.030;2023-08-20T06:20:03;12.50;;;4.82;;
77726;SDS011;68312;53.502;10.030;2023-08-20T06:22:42;22.85;;;5.45;;
77726;SDS011;68312;53.502;10.030;2023-08-20T06:25:08;13.32;;;5.70;;
77726;SDS011;68312;53.502;10.030;2023-08-20T06:27:33;14.57;;;5.00;;
77726;SDS011;68312;53.502;10.030;2023-08-20T06:29:59;14.65;;;5.60;;
77726;SDS011;68312;53.502;10.030;2023-08-20T06:32:25;12.60;;;4.95;;
77726;SDS011;68312;53.502;10.030;2023-08-20T06:34:50;11.38;;;5.30;;
77726;SDS011;68312;53.502;10.030;2023-08-20T06:37:16;11.93;;;5.68;;
77726;SDS011;68312;53.502;10.030;2023-08-20T06:39:41;13.23;;;5.28;;
77726;SDS011;68312;53.502;10.030;2023-08-20T06:42:06;12.55;;;5.53;;
77726;SDS011;68312;53.502;10.030;2023-08-20T06:44:32;12.82;;;4.93;;
77726;SDS011;68312;53.502;10.030;2023-08-20T06:46:58;10.10;;;5.90;;
77726;SDS011;68312;53.502;10.030;2023-08-20T06:49:23;14.20;;;5.68;;
77726;SDS011;68312;53.502;10.030;2023-08-20T06:51:51;15.52;;;6.97;;
77726;SDS011;68312;53.502;10.030;2023-08-20T06:54:17;14.25;;;6.65;;
77726;SDS011;68312;53.502;10.030;2023-08-20T06:56:42;12.38;;;6.32;;
77726;SDS011;68312;53.502;10.030;2023-08-20T06:59:08;11.98;;;6.55;;
77726;SDS011;68312;53.502;10.030;2023-08-20T07:01:33;10.25;;;5.78;;
77726;SDS011;68312;53.502;10.030;2023-08-20T07:03:59;11.95;;;6.80;;
77726;SDS011;68312;53.502;10.030;2023-08-20T07:06:24;11.98;;;6.75;;
77726;SDS011;68312;53.502;10.030;2023-08-20T07:08:50;19.48;;;8.38;;
77726;SDS011;68312;53.502;10.030;2023-08-20T07:11:15;19.35;;;9.82;;
77726;SDS011;68312;53.502;10.030;2023-08-20T07:13:41;16.13;;;9.80;;
77726;SDS011;68312;53.502;10.030;2023-08-20T07:16:06;16.48;;;8.07;;
77726;SDS011;68312;53.502;10.030;2023-08-20T07:18:32;16.73;;;10.25;;
77726;SDS011;68312;53.502;10.030;2023-08-20T07:20:57;13.73;;;8.05;;
77726;SDS011;68312;53.502;10.030;2023-08-20T07:23:23;11.77;;;7.57;;
77726;SDS011;68312;53.502;10.030;2023-08-20T07:25:48;13.57;;;7.95;;
77726;SDS011;68312;53.502;10.030;2023-08-20T07:28:17;14.73;;;8.50;;
77726;SDS011;68312;53.502;10.030;2023-08-20T07:30:51;13.82;;;8.38;;
77726;SDS011;68312;53.502;10.030;2023-08-20T07:33:17;15.38;;;8.15;;
77726;SDS011;68312;53.502;10.030;2023-08-20T07:35:42;15.77;;;9.25;;
77726;SDS011;68312;53.502;10.030;2023-08-20T07:38:08;13.25;;;8.57;;
77726;SDS011;68312;53.502;10.030;2023-08-20T07:40:34;13.68;;;9.13;;
77726;SDS011;68312;53.502;10.030;2023-08-20T07:43:01;15.32;;;9.40;;
77726;SDS011;68312;53.502;10.030;2023-08-20T07:45:27;15.73;;;11.00;;
77726;SDS011;68312;53.502;10.030;2023-08-20T07:47:53;16.80;;;9.98;;
77726;SDS011;68312;53.502;10.030;2023-08-20T07:50:18;15.32;;;9.10;;
77726;SDS011;68312;53.502;10.030;2023-08-20T07:52:43;8.60;;;6.30;;
77726;SDS011;68312;53.502;10.030;2023-08-20T07:55:09;10.18;;;5.60;;
77726;SDS011;68312;53.502;10.030;2023-08-20T07:57:34;8.07;;;5.30;;
77726;SDS011;68312;53.502;10.030;2023-08-20T08:00:00;11.95;;;5.35;;
77726;SDS011;68312;53.502;10.030;2023-08-20T08:02:25;10.85;;;5.00;;
77726;SDS011;68312;53.502;10.030;2023-08-20T08:04:51;7.80;;;4.65;;
77726;SDS011;68312;53.502;10.030;2023-08-20T08:07:16;6.60;;;4.03;;
77726;SDS011;68312;53.502;10.030;2023-08-20T08:09:41;9.05;;;4.90;;
77726;SDS011;68312;53.502;10.030;2023-08-20T08:12:07;8.02;;;3.78;;
77726;SDS011;68312;53.502;10.030;2023-08-20T08:14:32;7.93;;;4.00;;
77726;SDS011;68312;53.502;10.030;2023-08-20T08:16:58;7.22;;;3.55;;
77726;SDS011;68312;53.502;10.030;2023-08-20T08:19:23;8.63;;;2.88;;
77726;SDS011;68312;53.502;10.030;2023-08-20T08:21:49;6.07;;;3.17;;
77726;SDS011;68312;53.502;10.030;2023-08-20T08:24:15;4.95;;;2.92;;
77726;SDS011;68312;53.502;10.030;2023-08-20T08:30:15;5.03;;;2.42;;
77726;SDS011;68312;53.502;10.030;2023-08-20T08:32:40;4.68;;;2.30;;
77726;SDS011;68312;53.502;10.030;2023-08-20T08:35:06;5.93;;;3.13;;
77726;SDS011;68312;53.502;10.030;2023-08-20T08:37:32;5.32;;;1.92;;
77726;SDS011;68312;53.502;10.030;2023-08-20T08:39:58;7.35;;;1.83;;
77726;SDS011;68312;53.502;10.030;2023-08-20T08:42:23;6.28;;;1.90;;
77726;SDS011;68312;53.502;10.030;2023-08-20T08:44:49;4.68;;;1.90;;
77726;SDS011;68312;53.502;10.030;2023-08-20T08:47:16;5.72;;;1.90;;
77726;SDS011;68312;53.502;10.030;2023-08-20T08:49:46;4.20;;;1.55;;
77726;SDS011;68312;53.502;10.030;2023-08-20T08:52:13;4.20;;;1.80;;
77726;SDS011;68312;53.502;10.030;2023-08-20T08:54:39;6.75;;;1.58;;
77726;SDS011;68312;53.502;10.030;2023-08-20T08:57:05;3.35;;;1.45;;
77726;SDS011;68312;53.502;10.030;2023-08-20T08:59:31;5.97;;;1.52;;
77726;SDS011;68312;53.502;10.030;2023-08-20T09:01:57;2.38;;;1.35;;
77726;SDS011;68312;53.502;10.030;2023-08-20T09:04:23;4.90;;;1.30;;
77726;SDS011;68312;53.502;10.030;2023-08-20T09:06:50;5.25;;;1.08;;
77726;SDS011;68312;53.502;10.030;2023-08-20T09:09:18;3.35;;;1.30;;
77726;SDS011;68312;53.502;10.030;2023-08-20T09:11:45;2.85;;;1.10;;
77726;SDS011;68312;53.502;10.030;2023-08-20T09:14:21;5.03;;;1.75;;
77726;SDS011;68312;53.502;10.030;2023-08-20T09:16:57;10.00;;;1.83;;
77726;SDS011;68312;53.502;10.030;2023-08-20T09:19:30;4.95;;;1.38;;
77726;SDS011;68312;53.502;10.030;2023-08-20T09:22:04;4.35;;;1.45;;
77726;SDS011;68312;53.502;10.030;2023-08-20T09:24:33;4.13;;;1.20;;
77726;SDS011;68312;53.502;10.030;2023-08-20T09:27:04;4.20;;;1.50;;
77726;SDS011;68312;53.502;10.030;2023-08-20T09:29:43;1.83;;;1.10;;
77726;SDS011;68312;53.502;10.030;2023-08-20T09:32:23;4.07;;;1.40;;
77726;SDS011;68312;53.502;10.030;2023-08-20T09:34:51;3.78;;;1.38;;
77726;SDS011;68312;53.502;10.030;2023-08-20T09:37:22;5.63;;;1.55;;
77726;SDS011;68312;53.502;10.030;2023-08-20T09:39:49;6.47;;;1.40;;
77726;SDS011;68312;53.502;10.030;2023-08-20T09:42:15;6.30;;;1.88;;
77726;SDS011;68312;53.502;10.030;2023-08-20T09:44:44;7.80;;;1.85;;
77726;SDS011;68312;53.502;10.030;2023-08-20T09:47:15;3.42;;;1.48;;
77726;SDS011;68312;53.502;10.030;2023-08-20T09:49:42;6.72;;;1.70;;
77726;SDS011;68312;53.502;10.030;2023-08-20T09:52:10;5.40;;;1.88;;
77726;SDS011;68312;53.502;10.030;2023-08-20T09:57:37;4.88;;;1.90;;
77726;SDS011;68312;53.502;10.030;2023-08-20T10:00:09;4.18;;;2.10;;
77726;SDS011;68312;53.502;10.030;2023-08-20T10:02:36;4.07;;;1.60;;
77726;SDS011;68312;53.502;10.030;2023-08-20T10:05:06;6.72;;;2.25;;
77726;SDS011;68312;53.502;10.030;2023-08-20T10:07:34;6.65;;;1.90;;
77726;SDS011;68312;53.502;10.030;2023-08-20T10:10:01;5.65;;;1.77;;
77726;SDS011;68312;53.502;10.030;2023-08-20T10:12:30;4.15;;;1.35;;
77726;SDS011;68312;53.502;10.030;2023-08-20T10:14:57;5.57;;;1.55;;
77726;SDS011;68312;53.502;10.030;2023-08-20T10:17:27;8.98;;;2.00;;
77726;SDS011;68312;53.502;10.030;2023-08-20T10:19:57;7.05;;;1.52;;
77726;SDS011;68312;53.502;10.030;2023-08-20T10:22:45;5.53;;;1.70;;
77726;SDS011;68312;53.502;10.030;2023-08-20T10:25:23;5.65;;;1.73;;
77726;SDS011;68312;53.502;10.030;2023-08-20T10:27:50;4.78;;;1.70;;
77726;SDS011;68312;53.502;10.030;2023-08-20T10:30:17;5.50;;;1.70;;
77726;SDS011;68312;53.502;10.030;2023-08-20T10:32:58;4.72;;;1.50;;
77726;SDS011;68312;53.502;10.030;2023-08-20T10:35:25;3.83;;;1.70;;
77726;SDS011;68312;53.502;10.030;2023-08-20T10:38:14;5.78;;;1.88;;
77726;SDS011;68312;53.502;10.030;2023-08-20T10:44:10;6.03;;;1.75;;
77726;SDS011;68312;53.502;10.030;2023-08-20T10:46:35;4.32;;;1.63;;
77726;SDS011;68312;53.502;10.030;2023-08-20T10:49:16;3.47;;;1.40;;
77726;SDS011;68312;53.502;10.030;2023-08-20T10:51:42;6.05;;;1.33;;
77726;SDS011;68312;53.502;10.030;2023-08-20T10:54:08;9.52;;;2.03;;
77726;SDS011;68312;53.502;10.030;2023-08-20T10:56:46;4.93;;;1.58;;
77726;SDS011;68312;53.502;10.030;2023-08-20T11:01:52;4.95;;;1.30;;
77726;SDS011;68312;53.502;10.030;2023-08-20T11:04:30;3.92;;;1.40;;
77726;SDS011;68312;53.502;10.030;2023-08-20T11:07:00;5.38;;;1.50;;
77726;SDS011;68312;53.502;10.030;2023-08-20T11:09:28;4.78;;;1.25;;
77726;SDS011;68312;53.502;10.030;2023-08-20T11:11:55;5.50;;;1.70;;
77726;SDS011;68312;53.502;10.030;2023-08-20T11:14:22;4.10;;;1.40;;
77726;SDS011;68312;53.502;10.030;2023-08-20T11:16:48;4.88;;;1.55;;
77726;SDS011;68312;53.502;10.030;2023-08-20T11:19:14;6.97;;;2.00;;
77726;SDS011;68312;53.502;10.030;2023-08-20T11:21:47;6.45;;;1.70;;
77726;SDS011;68312;53.502;10.030;2023-08-20T11:24:14;4.80;;;1.65;;
77726;SDS011;68312;53.502;10.030;2023-08-20T11:26:39;6.43;;;1.42;;
77726;SDS011;68312;53.502;10.030;2023-08-20T11:29:09;4.88;;;1.48;;
77726;SDS011;68312;53.502;10.030;2023-08-20T11:31:38;3.47;;;1.42;;
77726;SDS011;68312;53.502;10.030;2023-08-20T11:34:04;2.88;;;1.33;;
77726;SDS011;68312;53.502;10.030;2023-08-20T11:36:31;4.90;;;1.85;;
77726;SDS011;68312;53.502;10.030;2023-08-20T11:38:57;5.75;;;1.80;;
77726;SDS011;68312;53.502;10.030;2023-08-20T11:41:24;4.43;;;1.70;;
77726;SDS011;68312;53.502;10.030;2023-08-20T11:43:51;5.10;;;1.77;;
77726;SDS011;68312;53.502;10.030;2023-08-20T11:46:19;4.38;;;1.60;;
77726;SDS011;68312;53.502;10.030;2023-08-20T11:51:37;6.57;;;2.20;;
77726;SDS011;68312;53.502;10.030;2023-08-20T11:54:16;5.15;;;1.70;;
77726;SDS011;68312;53.502;10.030;2023-08-20T11:59:49;5.07;;;1.58;;
77726;SDS011;68312;53.502;10.030;2023-08-20T12:02:14;5.32;;;1.73;;
77726;SDS011;68312;53.502;10.030;2023-08-20T12:04:40;5.82;;;1.80;;
77726;SDS011;68312;53.502;10.030;2023-08-20T12:09:35;6.80;;;1.88;;
77726;SDS011;68312;53.502;10.030;2023-08-20T12:12:00;4.63;;;1.80;;
77726;SDS011;68312;53.502;10.030;2023-08-20T12:14:27;5.47;;;1.92;;
77726;SDS011;68312;53.502;10.030;2023-08-20T12:16:55;6.03;;;1.75;;
77726;SDS011;68312;53.502;10.030;2023-08-20T12:19:21;6.38;;;1.80;;
77726;SDS011;68312;53.502;10.030;2023-08-20T12:21:48;6.85;;;1.90;;
77726;SDS011;68312;53.502;10.030;2023-08-20T12:24:14;5.32;;;1.52;;
77726;SDS011;68312;53.502;10.030;2023-08-20T12:26:40;6.68;;;1.73;;
77726;SDS011;68312;53.502;10.030;2023-08-20T12:29:06;3.92;;;1.42;;
77726;SDS011;68312;53.502;10.030;2023-08-20T12:31:32;8.13;;;1.77;;
77726;SDS011;68312;53.502;10.030;2023-08-20T12:33:58;6.97;;;1.40;;
77726;SDS011;68312;53.502;10.030;2023-08-20T12:36:24;9.10;;;1.70;;
77726;SDS011;68312;53.502;10.030;2023-08-20T12:38:50;5.43;;;1.60;;
77726;SDS011;68312;53.502;10.030;2023-08-20T12:41:15;4.93;;;1.27;;
77726;SDS011;68312;53.502;10.030;2023-08-20T12:43:41;6.65;;;1.63;;
77726;SDS011;68312;53.502;10.030;2023-08-20T12:46:07;4.78;;;1.52;;
77726;SDS011;68312;53.502;10.030;2023-08-20T12:48:32;5.38;;;1.60;;
77726;SDS011;68312;53.502;10.030;2023-08-20T12:50:58;5.13;;;1.95;;
77726;SDS011;68312;53.502;10.030;2023-08-20T12:53:23;5.07;;;1.65;;
77726;SDS011;68312;53.502;10.030;2023-08-20T12:55:49;6.57;;;1.80;;
77726;SDS011;68312;53.502;10.030;2023-08-20T12:58:15;4.10;;;1.75;;
77726;SDS011;68312;53.502;10.030;2023-08-20T13:00:40;4.18;;;1.83;;
77726;SDS011;68312;53.502;10.030;2023-08-20T13:03:06;6.13;;;2.08;;
77726;SDS011;68312;53.502;10.030;2023-08-20T13:05:32;6.95;;;2.28;;
77726;SDS011;68312;53.502;10.030;2023-08-20T13:07:58;4.78;;;2.08;;
77726;SDS011;68312;53.502;10.030;2023-08-20T13:10:24;6.05;;;2.25;;
77726;SDS011;68312;53.502;10.030;2023-08-20T13:12:51;4.03;;;2.08;;
77726;SDS011;68312;53.502;10.030;2023-08-20T13:15:19;6.93;;;2.25;;
77726;SDS011;68312;53.502;10.030;2023-08-20T13:17:47;6.32;;;2.17;;
77726;SDS011;68312;53.502;10.030;2023-08-20T13:20:16;6.05;;;1.80;;
77726;SDS011;68312;53.502;10.030;2023-08-20T13:22:50;4.20;;;1.90;;
77726;SDS011;68312;53.502;10.030;2023-08-20T13:28:04;6.57;;;2.13;;
77726;SDS011;68312;53.502;10.030;2023-08-20T13:30:29;3.15;;;1.60;;
77726;SDS011;68312;53.502;10.030;2023-08-20T13:32:56;4.15;;;1.65;;
77726;SDS011;68312;53.502;10.030;2023-08-20T13:35:21;4.88;;;1.83;;
77726;SDS011;68312;53.502;10.030;2023-08-20T13:37:47;5.82;;;2.22;;
77726;SDS011;68312;53.502;10.030;2023-08-20T13:40:13;6.47;;;2.03;;
77726;SDS011;68312;53.502;10.030;2023-08-20T13:42:38;6.82;;;2.55;;
77726;SDS011;68312;53.502;10.030;2023-08-20T13:45:04;4.55;;;1.42;;
77726;SDS011;68312;53.502;10.030;2023-08-20T13:47:30;6.20;;;1.75;;
77726;SDS011;68312;53.502;10.030;2023-08-20T13:49:56;4.90;;;1.65;;
77726;SDS011;68312;53.502;10.030;2023-08-20T13:52:22;4.38;;;2.20;;
77726;SDS011;68312;53.502;10.030;2023-08-20T13:54:47;5.15;;;2.05;;
77726;SDS011;68312;53.502;10.030;2023-08-20T13:57:13;4.88;;;1.80;;
77726;SDS011;68312;53.502;10.030;2023-08-20T13:59:38;5.78;;;2.85;;
77726;SDS011;68312;53.502;10.030;2023-08-20T14:02:04;6.45;;;2.10;;
77726;SDS011;68312;53.502;10.030;2023-08-20T14:04:30;8.95;;;1.55;;
77726;SDS011;68312;53.502;10.030;2023-08-20T14:06:55;4.88;;;1.55;;
77726;SDS011;68312;53.502;10.030;2023-08-20T14:09:21;6.15;;;1.55;;
77726;SDS011;68312;53.502;10.030;2023-08-20T14:11:46;3.40;;;1.27;;
77726;SDS011;68312;53.502;10.030;2023-08-20T14:14:12;4.00;;;1.70;;
77726;SDS011;68312;53.502;10.030;2023-08-20T14:16:37;3.25;;;1.63;;
77726;SDS011;68312;53.502;10.030;2023-08-20T14:19:03;3.63;;;1.25;;
77726;SDS011;68312;53.502;10.030;2023-08-20T14:21:29;5.00;;;1.55;;
77726;SDS011;68312;53.502;10.030;2023-08-20T14:23:54;3.38;;;1.30;;
77726;SDS011;68312;53.502;10.030;2023-08-20T14:26:19;5.80;;;1.40;;
77726;SDS011;68312;53.502;10.030;2023-08-20T14:28:45;5.13;;;1.50;;
77726;SDS011;68312;53.502;10.030;2023-08-20T14:31:11;6.45;;;1.45;;
77726;SDS011;68312;53.502;10.030;2023-08-20T14:33:36;7.03;;;1.40;;
77726;SDS011;68312;53.502;10.030;2023-08-20T14:36:02;2.70;;;1.20;;
77726;SDS011;68312;53.502;10.030;2023-08-20T14:38:31;4.68;;;1.52;;
77726;SDS011;68312;53.502;10.030;2023-08-20T14:40:59;4.65;;;1.30;;
77726;SDS011;68312;53.502;10.030;2023-08-20T14:43:26;5.53;;;1.67;;
77726;SDS011;68312;53.502;10.030;2023-08-20T14:45:53;4.45;;;1.50;;
77726;SDS011;68312;53.502;10.030;2023-08-20T14:48:19;4.95;;;1.75;;
77726;SDS011;68312;53.502;10.030;2023-08-20T14:50:45;3.97;;;1.48;;
77726;SDS011;68312;53.502;10.030;2023-08-20T14:53:11;4.10;;;1.45;;
77726;SDS011;68312;53.502;10.030;2023-08-20T14:55:36;4.65;;;1.48;;
77726;SDS011;68312;53.502;10.030;2023-08-20T14:58:02;3.40;;;1.48;;
77726;SDS011;68312;53.502;10.030;2023-08-20T15:00:29;4.43;;;1.50;;
77726;SDS011;68312;53.502;10.030;2023-08-20T15:02:57;4.25;;;1.60;;
77726;SDS011;68312;53.502;10.030;2023-08-20T15:05:23;4.70;;;1.40;;